Time;durP1;ratioP1;P1;durP2;ratioP2;P2;SDS_P1;SDS_P2;PMS_P1;PMS_P2;Temp;Humidity;BMP_temperature;BMP_pressure;BME280_temperature;BME280_humidity;BME280_pressure;Samples;Min_cycle;Max_cycle;Signal;HPM_P1;HPM_P2
2023/06/11 00:04:51;;;;;;;2.33;2.13;;;;;;;20.54;59.81;96389.13;10493035;28;20040;-34
2023/06/11 00:09:52;;;;;;;2.15;1.95;;;;;;;20.42;60.27;96394.38;10496529;28;20075;-35
2023/06/11 00:14:52;;;;;;;1.90;1.80;;;;;;;20.37;60.10;96394.44;10491328;28;20043;-34
2023/06/11 00:19:53;;;;;;;2.47;1.60;;;;;;;20.33;60.15;96392.81;10496281;28;20039;-36
2023/06/11 00:24:53;;;;;;;1.97;1.77;;;;;;;20.30;59.90;96382.66;10495089;28;20035;-35
2023/06/11 00:29:53;;;;;;;2.50;2.30;;;;;;;20.40;61.16;96391.00;10492985;28;20036;-34
2023/06/11 00:34:54;;;;;;;1.88;1.77;;;;;;;20.60;59.94;96403.44;10495364;28;20044;-34
2023/06/11 00:39:54;;;;;;;1.70;1.60;;;;;;;20.54;59.55;96390.84;10471707;28;20035;-34
2023/06/11 00:44:55;;;;;;;2.15;1.77;;;;;;;20.42;59.93;96392.69;10495545;28;20041;-34
2023/06/11 00:49:56;;;;;;;2.90;1.60;;;;;;;20.35;60.04;96391.91;10490653;28;20048;-35
2023/06/11 00:54:57;;;;;;;1.60;1.50;;;;;;;20.33;59.92;96392.81;10489318;28;20029;-34
2023/06/11 00:59:57;;;;;;;1.58;1.30;;;;;;;20.30;59.99;96392.84;10500785;28;20028;-35
2023/06/11 01:05:00;;;;;;;1.80;1.55;;;;;;;20.35;60.58;96384.28;10481705;28;20112;-36
2023/06/11 01:10:02;;;;;;;2.50;2.30;;;;;;;20.55;59.69;96388.25;10490784;28;20132;-35
2023/06/11 01:15:05;;;;;;;2.47;1.55;;;;;;;20.53;59.28;96389.97;10469954;28;20033;-35
2023/06/11 01:20:12;;;;;;;1.70;1.60;;;;;;;20.42;59.70;96395.25;10489883;28;20101;-33
2023/06/11 01:25:29;;;;;;;1.60;1.50;;;;;;;20.34;59.82;96389.41;10475602;28;20410;-34
2023/06/11 01:30:33;;;;;;;1.77;1.40;;;;;;;20.30;59.71;96388.59;10469592;28;20652;-34
2023/06/11 01:35:35;;;;;;;1.83;1.73;;;;;;;20.29;59.76;96391.16;10474216;28;20508;-35
2023/06/11 03:19:09;;;;;;;1.40;1.30;;;;;;;20.58;59.47;96410.28;10431531;27;20500;-29
2023/06/11 03:24:09;;;;;;;1.65;1.50;;;;;;;20.47;59.47;96404.50;10384338;28;20479;-29
2023/06/11 03:29:10;;;;;;;1.57;1.47;;;;;;;20.34;59.45;96405.50;10393128;28;20048;-29
2023/06/11 03:34:18;;;;;;;2.85;1.60;;;;;;;20.30;59.72;96400.47;10392194;28;20287;-29
2023/06/11 03:39:19;;;;;;;1.60;1.50;;;;;;;20.28;59.78;96399.66;10384083;28;20042;-29
2023/06/11 03:44:23;;;;;;;1.48;1.30;;;;;;;20.42;60.26;96405.41;10407509;28;20025;-30
2023/06/11 03:49:24;;;;;;;1.40;1.30;;;;;;;20.56;59.47;96412.00;10397302;28;20488;-30
2023/06/11 03:54:24;;;;;;;1.42;1.33;;;;;;;20.44;59.33;96417.22;10387498;28;20084;-30
2023/06/11 03:59:25;;;;;;;1.35;1.25;;;;;;;20.36;59.27;96424.09;10411136;28;20032;-33
2023/06/11 04:04:25;;;;;;;1.63;1.45;;;;;;;20.32;59.60;96422.47;10399526;28;20026;-32
2023/06/11 04:09:26;;;;;;;1.73;1.63;;;;;;;20.30;59.40;96423.34;10382477;28;20065;-30
2023/06/11 04:14:26;;;;;;;1.30;1.20;;;;;;;20.33;60.34;96429.25;10390649;28;20044;-31
2023/06/11 04:19:27;;;;;;;1.27;1.17;;;;;;;20.54;59.55;96424.72;10391550;28;20488;-30
2023/06/11 04:24:28;;;;;;;1.63;1.52;;;;;;;20.57;59.48;96428.94;10371788;28;20828;-31
2023/06/11 04:29:31;;;;;;;1.98;1.88;;;;;;;20.42;59.36;96428.31;10371987;28;20061;-29
2023/06/11 04:34:36;;;;;;;1.30;1.13;;;;;;;20.37;59.49;96435.97;10379726;28;20057;-30
2023/06/11 04:39:37;;;;;;;1.45;1.35;;;;;;;20.26;59.79;96416.63;10354265;28;20026;-30
2023/06/11 04:44:38;;;;;;;3.10;1.50;;;;;;;20.30;59.54;96433.50;10370793;28;20439;-30
2023/06/11 04:49:40;;;;;;;1.70;1.60;;;;;;;20.41;60.33;96432.53;10350798;28;20034;-30
2023/06/11 04:54:41;;;;;;;1.60;1.50;;;;;;;20.60;59.72;96433.97;10356655;28;20022;-31
2023/06/11 04:59:42;;;;;;;1.35;1.25;;;;;;;20.58;59.52;96441.66;10359322;28;20562;-31
2023/06/11 05:04:43;;;;;;;1.63;1.52;;;;;;;20.45;59.31;96442.66;10344433;28;20112;-30
2023/06/11 05:09:44;;;;;;;1.33;1.23;;;;;;;20.39;59.33;96450.34;10340674;28;20033;-30
2023/06/11 05:14:45;;;;;;;1.45;1.35;;;;;;;20.35;59.66;96450.38;10383691;28;20180;-30
2023/06/11 05:19:45;;;;;;;1.40;1.30;;;;;;;20.33;59.65;96451.28;10382923;28;20112;-30
2023/06/11 05:24:47;;;;;;;1.58;1.20;;;;;;;20.38;60.73;96457.16;10343069;28;20511;-30
2023/06/11 05:29:48;;;;;;;1.90;1.80;;;;;;;20.58;60.10;96449.28;10364318;28;20042;-30
2023/06/11 05:34:49;;;;;;;1.50;1.40;;;;;;;20.60;59.78;96455.19;10365126;28;20029;-30
2023/06/11 05:39:50;;;;;;;1.77;1.63;;;;;;;20.47;59.37;96455.34;10359199;28;20098;-30
2023/06/11 05:44:52;;;;;;;1.83;1.40;;;;;;;20.38;59.39;96457.16;10361982;28;20025;-30
2023/06/11 05:49:56;;;;;;;1.50;1.40;;;;;;;20.36;59.92;96453.78;10357187;28;20029;-30
2023/06/11 05:54:56;;;;;;;6.10;5.50;;;;;;;20.61;65.06;96441.59;10375216;28;20021;-30
2023/06/11 05:59:56;;;;;;;7.78;5.95;;;;;;;20.75;64.27;96449.91;10390373;28;20036;-29
2023/06/11 06:04:58;;;;;;;6.75;5.97;;;;;;;20.83;62.61;96460.81;10352461;28;20026;-30
2023/06/11 06:09:58;;;;;;;6.93;6.32;;;;;;;20.88;62.58;96465.88;10381319;28;20048;-30
2023/06/11 06:14:59;;;;;;;5.95;5.35;;;;;;;20.90;62.21;96459.88;10342206;28;20188;-31
2023/06/11 06:20:02;;;;;;;5.90;5.40;;;;;;;20.69;61.28;96465.22;10333786;28;20572;-31
2023/06/11 06:25:03;;;;;;;3.92;3.60;;;;;;;20.51;60.11;96460.38;10349035;28;20084;-30
2023/06/11 06:30:07;;;;;;;3.53;3.22;;;;;;;20.44;60.03;96471.47;10348005;28;20133;-31
2023/06/11 06:35:08;;;;;;;4.65;3.17;;;;;;;20.41;60.05;96468.13;10342839;28;20133;-30
2023/06/11 06:40:12;;;;;;;4.88;3.97;;;;;;;20.51;61.46;96470.56;10355782;28;20036;-30
2023/06/11 06:45:12;;;;;;;3.28;3.00;;;;;;;20.69;60.70;96467.78;10354409;28;20030;-32
2023/06/11 06:50:13;;;;;;;2.83;2.60;;;;;;;20.62;60.75;96463.63;10354127;28;20048;-30
2023/06/11 06:55:15;;;;;;;3.70;3.28;;;;;;;20.52;60.30;96464.59;10352982;28;20032;-31
2023/06/11 07:00:17;;;;;;;3.78;3.35;;;;;;;20.48;60.10;96480.75;10341424;28;20036;-32
2023/06/11 07:05:18;;;;;;;3.50;3.20;;;;;;;20.41;60.95;96478.31;10357362;28;20445;-31
2023/06/11 07:10:19;;;;;;;7.00;3.70;;;;;;;20.43;61.42;96476.56;10342690;28;20042;-30
2023/06/11 07:15:19;;;;;;;11.50;4.78;;;;;;;20.58;62.76;96469.63;10367861;28;20040;-31
2023/06/11 07:20:20;;;;;;;6.77;3.67;;;;;;;20.72;61.29;96467.72;10332638;28;20030;-30
2023/06/11 07:25:20;;;;;;;5.18;3.17;;;;;;;20.69;60.65;96472.88;10333266;28;20037;-30
2023/06/11 07:30:21;;;;;;;4.10;3.25;;;;;;;20.57;60.52;96462.81;10340402;28;20038;-30
2023/06/11 07:35:23;;;;;;;4.10;3.70;;;;;;;20.51;60.29;96470.56;10355330;28;20045;-31
2023/06/11 07:40:23;;;;;;;4.40;3.35;;;;;;;20.49;60.25;96469.75;10343997;28;20114;-31
2023/06/11 07:45:24;;;;;;;7.93;5.55;;;;;;;20.46;60.21;96471.47;10381025;28;20029;-30
2023/06/11 07:50:25;;;;;;;5.10;4.25;;;;;;;20.46;60.25;96472.28;10354937;28;20128;-30
2023/06/11 07:55:25;;;;;;;12.07;7.83;;;;;;;20.61;63.09;96464.50;10338497;28;20464;-31
2023/06/11 08:00:26;;;;;;;5.23;4.47;;;;;;;20.75;61.90;96465.16;10344875;28;20033;-30
2023/06/11 08:05:26;;;;;;;3.83;3.53;;;;;;;20.66;61.23;96464.44;10340382;28;20034;-31
2023/06/11 08:10:26;;;;;;;6.20;4.07;;;;;;;20.53;61.81;96463.75;10335924;28;20052;-31
2023/06/11 08:15:27;;;;;;;5.40;3.40;;;;;;;20.47;60.96;96463.81;10339295;28;20026;-30
2023/06/11 08:20:28;;;;;;;6.57;5.90;;;;;;;20.50;61.27;96456.16;10347268;28;20080;-30
2023/06/11 08:25:28;;;;;;;9.07;4.67;;;;;;;20.47;60.21;96447.72;10364644;28;20029;-30
2023/06/11 08:30:28;;;;;;;8.00;4.13;;;;;;;20.46;61.76;96451.94;10379852;28;20042;-31
2023/06/11 08:35:29;;;;;;;3.90;2.80;;;;;;;20.65;60.88;96450.84;10362042;28;20036;-31
2023/06/11 08:40:30;;;;;;;4.88;2.85;;;;;;;20.66;61.62;96444.94;10371364;28;20786;-32
2023/06/11 08:45:30;;;;;;;3.55;3.25;;;;;;;20.57;60.52;96442.47;10389866;28;20409;-30
2023/06/11 08:50:33;;;;;;;6.03;3.73;;;;;;;20.51;59.87;96444.25;10375234;28;20045;-31
2023/06/11 08:55:33;;;;;;;3.40;2.42;;;;;;;20.49;60.28;96441.75;10394347;28;20041;-30
2023/06/11 09:00:37;;;;;;;6.80;3.43;;;;;;;20.44;59.78;96437.56;10372058;28;20046;-30
2023/06/11 09:05:38;;;;;;;5.43;2.60;;;;;;;20.44;60.14;96433.34;10370369;28;20034;-30
2023/06/11 09:10:49;;;;;;;4.00;3.60;;;;;;;20.51;61.34;96429.88;10381166;28;20045;-31
2023/06/11 09:15:55;;;;;;;5.70;3.00;;;;;;;20.73;60.33;96438.88;10390956;28;20030;-30
2023/06/11 09:20:57;;;;;;;2.95;2.40;;;;;;;20.71;60.13;96432.97;10388979;28;20447;-30
2023/06/11 09:25:59;;;;;;;4.40;3.08;;;;;;;20.59;59.80;96438.25;10374735;28;20066;-30
2023/06/11 09:31:02;;;;;;;8.60;3.90;;;;;;;20.58;60.87;96439.09;10330487;28;20049;-30
2023/06/11 09:36:03;;;;;;;4.93;3.75;;;;;;;20.54;60.32;96432.34;10344655;28;20026;-31
2023/06/11 09:41:05;;;;;;;7.70;4.05;;;;;;;20.51;63.86;96440.03;10345142;28;20045;-31
2023/06/11 09:46:07;;;;;;;9.38;4.82;;;;;;;20.50;60.59;96443.44;10337095;28;20096;-31
2023/06/11 09:51:08;;;;;;;10.18;6.05;;;;;;;20.61;63.40;96441.59;10332070;28;20047;-31
2023/06/11 09:56:13;;;;;;;6.55;5.50;;;;;;;20.81;61.65;96444.72;10351311;28;20414;-30
2023/06/11 10:01:13;;;;;;;13.25;5.55;;;;;;;20.75;62.37;96437.19;10339985;28;20037;-31
2023/06/11 10:06:21;;;;;;;11.25;5.78;;;;;;;20.64;61.71;96436.47;10341671;28;20038;-31
2023/06/11 10:11:22;;;;;;;15.82;6.45;;;;;;;20.60;62.90;96442.47;10350823;28;20073;-31
2023/06/11 10:16:23;;;;;;;11.43;5.80;;;;;;;20.61;61.97;96436.50;10327126;28;20034;-31
2023/06/11 10:21:32;;;;;;;11.27;5.25;;;;;;;20.54;61.41;96439.16;10327639;28;20045;-30
2023/06/11 10:26:36;;;;;;;17.23;6.05;;;;;;;20.52;61.22;96434.09;10326919;28;20042;-31
2023/06/11 10:31:41;;;;;;;18.33;5.47;;;;;;;20.66;62.50;96442.38;10336258;28;20046;-31
2023/06/11 10:36:42;;;;;;;9.67;5.03;;;;;;;20.87;63.93;96443.84;10350228;28;20030;-29
2023/06/11 10:41:43;;;;;;;9.43;4.57;;;;;;;20.80;62.53;96449.84;10349260;28;20350;-30
2023/06/11 10:46:51;;;;;;;8.98;5.13;;;;;;;20.74;62.74;96438.03;10333540;28;20022;-31
2023/06/11 10:51:52;;;;;;;12.70;5.53;;;;;;;20.68;61.87;96442.34;10335051;28;20038;-31
2023/06/11 10:56:53;;;;;;;8.10;4.75;;;;;;;20.60;61.32;96437.38;10349497;28;20022;-31
2023/06/11 11:01:54;;;;;;;12.02;5.20;;;;;;;20.59;61.20;96437.38;10334854;28;20102;-30
2023/06/11 11:07:08;;;;;;;6.65;3.97;;;;;;;20.76;61.63;96436.31;10334453;28;20100;-32
2023/06/11 11:12:10;;;;;;;4.97;4.25;;;;;;;21.29;61.88;96433.84;10342571;28;20121;-31
2023/06/11 11:17:10;;;;;;;6.35;4.53;;;;;;;21.11;62.67;96426.50;10350424;28;20069;-32
2023/06/11 11:22:13;;;;;;;7.93;4.45;;;;;;;20.95;62.94;96417.41;10334246;28;20061;-30
2023/06/11 11:27:14;;;;;;;11.00;4.85;;;;;;;20.86;63.04;96427.72;10357888;28;20049;-31
2023/06/11 11:32:14;;;;;;;6.57;4.73;;;;;;;20.72;61.49;96411.75;10389464;28;20038;-30
2023/06/11 11:37:15;;;;;;;6.25;4.35;;;;;;;20.72;62.34;96413.47;10351460;28;20049;-31
2023/06/11 11:42:15;;;;;;;14.80;5.53;;;;;;;20.64;62.23;96416.09;10378753;28;20029;-31
2023/06/11 11:47:19;;;;;;;9.93;5.83;;;;;;;20.80;63.06;96412.50;10372524;28;20271;-32
2023/06/11 11:52:23;;;;;;;14.38;6.03;;;;;;;20.99;63.95;96402.94;10359108;28;20446;-31
2023/06/11 11:57:25;;;;;;;11.55;7.32;;;;;;;20.92;64.40;96397.09;10346047;28;20040;-31
2023/06/11 12:02:27;;;;;;;11.43;6.50;;;;;;;20.79;63.45;96399.81;10344195;28;20057;-30
2023/06/11 12:07:27;;;;;;;13.55;6.32;;;;;;;20.72;63.89;96381.22;10345986;28;20041;-31
2023/06/11 12:12:28;;;;;;;25.43;6.90;;;;;;;20.82;64.29;96380.22;10331591;28;20038;-32
2023/06/11 12:17:29;;;;;;;24.27;6.33;;;;;;;20.94;65.95;96369.91;10341287;28;20501;-31
2023/06/11 12:22:30;;;;;;;21.90;6.05;;;;;;;21.04;64.57;96371.47;10343076;28;20072;-31
2023/06/11 12:27:30;;;;;;;20.25;5.55;;;;;;;20.95;62.26;96363.09;10341468;28;20033;-31
2023/06/11 12:32:31;;;;;;;11.95;5.13;;;;;;;20.87;62.08;96358.16;10358933;28;20100;-31
2023/06/11 12:37:31;;;;;;;14.45;4.88;;;;;;;20.84;62.26;96352.22;10354077;28;20041;-30
2023/06/11 12:42:35;;;;;;;15.13;4.20;;;;;;;20.81;62.02;96345.47;10343828;28;20034;-31
2023/06/11 12:47:39;;;;;;;11.13;4.70;;;;;;;20.80;62.44;96350.59;10349450;28;20021;-30
2023/06/11 12:52:41;;;;;;;10.68;4.55;;;;;;;20.82;64.25;96344.59;10348692;28;20054;-31
2023/06/11 12:57:42;;;;;;;13.95;4.95;;;;;;;21.02;65.14;96345.19;10341605;28;20033;-31
2023/06/11 13:02:43;;;;;;;10.87;4.07;;;;;;;20.93;61.97;96335.16;10347112;28;20048;-32
2023/06/11 13:07:45;;;;;;;8.25;4.35;;;;;;;20.89;63.63;96330.16;10342946;28;20331;-31
2023/06/11 13:12:45;;;;;;;10.30;5.47;;;;;;;20.94;65.08;96324.13;10342915;28;20129;-31
2023/06/11 13:17:45;;;;;;;9.30;4.23;;;;;;;20.86;62.98;96325.94;10345937;28;20044;-31
2023/06/11 13:22:46;;;;;;;10.63;5.33;;;;;;;20.87;63.97;96311.53;10346716;28;20580;-30
2023/06/11 13:27:46;;;;;;;9.47;4.80;;;;;;;21.04;63.68;96315.47;10330450;28;20387;-30
2023/06/11 13:32:47;;;;;;;8.90;4.37;;;;;;;21.08;63.97;96311.16;10336572;28;20325;-31
2023/06/11 13:37:47;;;;;;;6.30;3.87;;;;;;;20.93;62.30;96317.34;10340901;28;20296;-31
2023/06/11 13:42:47;;;;;;;6.43;4.47;;;;;;;20.80;63.32;96320.91;10333702;28;20064;-32
2023/06/11 13:47:48;;;;;;;8.43;3.33;;;;;;;20.82;62.47;96316.63;10340785;28;20105;-32
2023/06/11 13:52:48;;;;;;;8.30;3.67;;;;;;;20.79;62.51;96308.22;10356203;28;20041;-31
2023/06/11 13:57:49;;;;;;;4.00;3.23;;;;;;;20.77;62.42;96303.16;10338983;28;20026;-31
2023/06/11 14:02:49;;;;;;;8.23;3.40;;;;;;;20.98;63.79;96304.53;10342561;28;20390;-31
2023/06/11 14:07:50;;;;;;;7.30;3.63;;;;;;;21.01;63.89;96300.25;10338279;28;20292;-32
2023/06/11 14:12:50;;;;;;;5.57;4.30;;;;;;;20.88;62.05;96301.28;10341751;28;20034;-31
2023/06/11 14:17:52;;;;;;;9.40;4.33;;;;;;;20.80;62.40;96290.38;10329133;28;20125;-31
2023/06/11 14:22:53;;;;;;;5.40;2.78;;;;;;;20.76;62.38;96293.84;10337013;28;20385;-31
2023/06/11 14:27:56;;;;;;;7.20;3.88;;;;;;;20.76;66.12;96287.91;10329274;28;20505;-31
2023/06/11 14:32:56;;;;;;;9.93;4.25;;;;;;;20.77;62.48;96289.56;10337558;28;20098;-32
2023/06/11 14:37:56;;;;;;;8.77;3.23;;;;;;;20.95;63.75;96279.97;10337429;28;20564;-32
2023/06/11 14:42:57;;;;;;;5.87;3.17;;;;;;;21.08;62.88;96285.69;10351113;28;20056;-32
2023/06/11 14:47:57;;;;;;;4.65;3.42;;;;;;;20.97;62.75;96282.50;10349578;28;20294;-31
2023/06/11 14:52:58;;;;;;;7.90;4.43;;;;;;;20.82;63.26;96278.44;10332188;28;20041;-32
2023/06/11 14:57:58;;;;;;;5.47;3.57;;;;;;;20.80;62.80;96280.19;10347749;28;20366;-32
2023/06/11 15:02:59;;;;;;;7.47;3.80;;;;;;;20.77;62.36;96282.78;10338893;28;20304;-31
2023/06/11 15:07:59;;;;;;;5.63;3.40;;;;;;;20.75;62.00;96273.50;10329839;28;20305;-31
2023/06/11 15:12:59;;;;;;;6.80;3.30;;;;;;;20.87;63.97;96269.09;10342407;28;20446;-32
2023/06/11 15:18:00;;;;;;;4.93;3.43;;;;;;;21.05;62.77;96271.31;10336228;28;20474;-31
2023/06/11 15:23:00;;;;;;;6.37;4.57;;;;;;;20.89;65.91;96264.81;10335211;28;20293;-31
2023/06/11 15:28:00;;;;;;;8.73;3.23;;;;;;;20.79;62.39;96268.34;10335909;28;20099;-32
2023/06/11 15:33:01;;;;;;;6.43;4.27;;;;;;;20.79;63.29;96265.78;10334801;28;20452;-31
2023/06/11 15:38:01;;;;;;;5.87;4.20;;;;;;;20.76;62.55;96267.53;10344583;28;20520;-32
2023/06/11 15:43:02;;;;;;;7.03;3.20;;;;;;;20.87;63.15;96256.38;10335477;28;20038;-31
2023/06/11 15:48:02;;;;;;;12.00;6.43;;;;;;;21.10;65.32;96264.44;10327638;28;20029;-31
2023/06/11 15:53:02;;;;;;;8.98;5.78;;;;;;;21.10;64.77;96259.38;10340820;28;20301;-32
2023/06/11 15:58:03;;;;;;;10.10;5.27;;;;;;;21.02;65.39;96260.34;10343975;28;20031;-31
2023/06/11 16:03:03;;;;;;;16.07;8.00;;;;;;;20.95;64.74;96264.72;10340780;28;20034;-31
2023/06/11 16:08:04;;;;;;;17.47;11.63;;;;;;;20.97;65.03;96257.06;10336152;28;20034;-31
2023/06/11 16:13:04;;;;;;;20.13;14.90;;;;;;;20.97;65.64;96257.06;10346042;28;20037;-32
2023/06/11 16:18:04;;;;;;;13.27;8.60;;;;;;;21.12;63.29;96257.63;10342342;28;20031;-31
2023/06/11 16:23:06;;;;;;;12.53;7.67;;;;;;;21.16;62.97;96249.09;10340308;28;20061;-31
2023/06/11 16:28:07;;;;;;;12.93;8.10;;;;;;;21.00;62.54;96251.91;10346405;28;20042;-31
2023/06/11 16:33:07;;;;;;;8.57;6.70;;;;;;;20.88;62.30;96247.84;10347466;28;20034;-31
2023/06/11 16:38:07;;;;;;;13.00;8.20;;;;;;;20.86;62.41;96249.59;10345047;28;20022;-32
2023/06/11 16:43:08;;;;;;;21.13;15.05;;;;;;;20.84;62.59;96245.34;10346938;28;20083;-31
2023/06/11 16:48:08;;;;;;;14.83;11.17;;;;;;;20.90;64.03;96238.50;10349543;28;20033;-31
2023/06/11 16:53:08;;;;;;;14.43;9.33;;;;;;;21.11;62.98;96239.81;10345920;28;20104;-31
2023/06/11 16:58:09;;;;;;;12.53;9.93;;;;;;;21.09;62.71;96242.41;10337692;28;20061;-32
2023/06/11 17:03:09;;;;;;;17.88;12.20;;;;;;;20.96;62.56;96242.66;10352029;28;20022;-31
2023/06/11 17:08:10;;;;;;;16.47;11.23;;;;;;;20.91;62.78;96237.66;10358905;28;20032;-32
2023/06/11 17:13:10;;;;;;;22.35;12.13;;;;;;;20.87;62.32;96243.63;10341165;28;20100;-32
2023/06/11 17:18:11;;;;;;;14.95;10.15;;;;;;;20.82;62.27;96239.47;10336348;28;20513;-31
2023/06/11 17:23:11;;;;;;;15.70;11.33;;;;;;;20.90;64.16;96235.94;10338286;28;20034;-31
2023/06/11 17:28:11;;;;;;;22.87;11.63;;;;;;;21.13;65.02;96248.28;10336809;28;20121;-31
2023/06/11 17:33:12;;;;;;;12.87;7.87;;;;;;;21.09;61.97;96246.66;10333408;28;20736;-32
2023/06/11 17:38:12;;;;;;;14.02;9.55;;;;;;;20.98;63.15;96246.00;10338414;28;20042;-31
2023/06/11 17:43:13;;;;;;;21.23;11.55;;;;;;;20.94;62.46;96246.91;10334016;28;20401;-32
2023/06/11 17:48:13;;;;;;;13.43;8.47;;;;;;;20.91;62.20;96247.81;10331194;28;20052;-31
2023/06/11 17:53:13;;;;;;;11.17;7.20;;;;;;;20.87;61.95;96256.38;10345589;28;20042;-32
2023/06/11 17:58:14;;;;;;;15.90;8.37;;;;;;;20.83;62.14;96251.31;10347701;28;20034;-31
2023/06/11 18:03:15;;;;;;;12.52;8.95;;;;;;;21.09;63.02;96251.75;10345218;28;20296;-31
2023/06/11 18:08:15;;;;;;;11.00;6.80;;;;;;;21.20;62.28;96260.88;10336969;28;20030;-31
2023/06/11 18:13:15;;;;;;;9.23;7.70;;;;;;;21.11;63.33;96271.22;10363024;28;20046;-32
2023/06/11 18:18:16;;;;;;;13.47;9.23;;;;;;;20.99;62.84;96276.50;10342830;28;20040;-31
2023/06/11 18:23:17;;;;;;;10.20;6.97;;;;;;;20.91;62.38;96283.44;10351405;28;20038;-32
2023/06/11 18:28:17;;;;;;;10.33;6.63;;;;;;;20.87;62.34;96293.72;10347631;28;20058;-32
2023/06/11 18:33:17;;;;;;;11.53;9.80;;;;;;;20.87;63.53;96296.25;10326314;28;20049;-32
2023/06/11 18:38:18;;;;;;;12.07;8.80;;;;;;;21.00;65.27;96303.66;10331623;28;20085;-33
2023/06/11 18:43:18;;;;;;;11.80;7.73;;;;;;;21.17;63.04;96299.13;10332573;28;20042;-32
2023/06/11 18:48:19;;;;;;;11.63;7.25;;;;;;;21.18;62.33;96303.34;10335707;28;20300;-31
2023/06/11 18:53:19;;;;;;;15.13;8.27;;;;;;;21.05;62.91;96312.03;10367641;28;20045;-32
2023/06/11 18:58:20;;;;;;;11.17;8.50;;;;;;;20.95;62.39;96302.88;10351343;28;20034;-34
2023/06/11 19:03:23;;;;;;;13.38;8.30;;;;;;;20.91;62.71;96308.91;10363062;28;20398;-31
2023/06/11 19:08:23;;;;;;;9.45;8.00;;;;;;;20.88;62.18;96310.66;10329004;28;20145;-32
2023/06/11 19:13:24;;;;;;;11.13;7.60;;;;;;;20.97;63.59;96316.41;10347257;28;20628;-30
2023/06/11 19:18:24;;;;;;;8.25;6.57;;;;;;;21.15;62.14;96317.84;10341439;28;20034;-32
2023/06/11 19:23:25;;;;;;;14.20;7.93;;;;;;;21.03;62.36;96323.09;10330276;28;20494;-33
2023/06/11 19:28:25;;;;;;;10.73;8.40;;;;;;;20.95;64.97;96328.34;10329825;28;20512;-31
2023/06/11 19:33:26;;;;;;;11.93;8.88;;;;;;;20.94;62.94;96328.34;10372884;28;20549;-32
2023/06/11 19:38:26;;;;;;;11.30;7.47;;;;;;;20.86;62.38;96331.03;10360917;28;20036;-33
2023/06/11 19:43:26;;;;;;;10.07;7.25;;;;;;;20.92;64.10;96346.22;10338608;28;20583;-33
2023/06/11 19:48:27;;;;;;;9.27;7.00;;;;;;;21.13;63.67;96343.31;10372217;28;20042;-32
2023/06/11 19:53:27;;;;;;;9.00;6.10;;;;;;;21.16;62.24;96356.00;10358528;28;20460;-31
2023/06/11 19:58:27;;;;;;;9.60;6.57;;;;;;;20.99;62.40;96363.03;10371104;28;20629;-32
2023/06/11 20:03:28;;;;;;;9.77;7.27;;;;;;;20.97;63.23;96374.13;10365036;28;20814;-32
2023/06/11 20:08:28;;;;;;;11.33;8.67;;;;;;;20.92;62.90;96376.75;10389266;28;20025;-32
2023/06/11 20:13:30;;;;;;;10.70;7.57;;;;;;;20.90;62.35;96382.72;10378282;28;20417;-31
2023/06/11 20:18:33;;;;;;;9.32;6.30;;;;;;;20.89;63.60;96394.59;10381544;28;20041;-32
2023/06/11 20:23:35;;;;;;;7.68;6.57;;;;;;;21.09;62.74;96390.06;10373422;28;20034;-32
2023/06/11 20:28:36;;;;;;;7.28;6.00;;;;;;;21.15;61.70;96389.13;10377577;28;20397;-33
2023/06/11 20:33:36;;;;;;;9.90;5.90;;;;;;;21.02;62.63;96391.00;10355981;28;20038;-30
2023/06/11 20:38:36;;;;;;;11.80;6.63;;;;;;;20.94;62.03;96395.38;10400765;28;20424;-31
2023/06/11 20:43:37;;;;;;;7.93;6.83;;;;;;;20.91;61.98;96400.50;10381447;28;20549;-32
2023/06/11 20:48:37;;;;;;;9.00;6.67;;;;;;;20.86;62.21;96399.72;10373084;28;20025;-31
2023/06/11 20:53:37;;;;;;;8.93;6.27;;;;;;;20.94;63.25;96405.56;10331065;28;20420;-32
2023/06/11 20:58:38;;;;;;;5.87;5.27;;;;;;;21.13;61.81;96391.69;10330368;28;20145;-32
2023/06/11 21:03:38;;;;;;;5.57;4.97;;;;;;;21.11;61.32;96397.66;10334168;28;20080;-32
2023/06/11 21:08:38;;;;;;;7.07;5.27;;;;;;;21.00;62.08;96397.84;10346414;28;20026;-32
2023/06/11 21:13:39;;;;;;;8.27;5.50;;;;;;;20.92;61.78;96404.75;10340949;28;20319;-31
2023/06/11 21:18:40;;;;;;;6.28;4.93;;;;;;;20.86;61.75;96402.28;10334954;28;20244;-32
2023/06/11 21:23:40;;;;;;;5.23;4.73;;;;;;;20.91;61.31;96397.13;10340288;28;20057;-32
2023/06/11 21:28:40;;;;;;;7.13;4.10;;;;;;;20.94;61.55;96403.00;10360051;28;20416;-32
2023/06/11 21:33:41;;;;;;;6.03;4.93;;;;;;;21.13;61.07;96395.94;10354104;28;20048;-32
2023/06/11 21:38:41;;;;;;;5.00;4.50;;;;;;;21.11;60.47;96398.50;10333709;28;20042;-32
2023/06/11 21:43:41;;;;;;;5.57;4.33;;;;;;;21.00;60.60;96391.88;10344485;28;20501;-32
2023/06/11 21:48:42;;;;;;;6.43;4.33;;;;;;;20.95;60.83;96401.28;10324288;28;20046;-31
2023/06/11 21:53:42;;;;;;;6.50;4.47;;;;;;;20.92;60.64;96401.34;10353605;28;20131;-32
2023/06/11 21:58:45;;;;;;;5.30;4.67;;;;;;;20.90;60.76;96396.25;10355292;28;20045;-31
2023/06/11 22:03:45;;;;;;;5.97;4.30;;;;;;;20.92;60.81;96384.38;10357113;28;20042;-31
2023/06/11 22:08:46;;;;;;;5.10;4.20;;;;;;;21.13;60.91;96381.50;10343561;28;20336;-31
2023/06/11 22:13:47;;;;;;;4.53;4.07;;;;;;;21.15;60.68;96384.84;10356862;28;20448;-32
2023/06/11 22:18:48;;;;;;;4.50;4.10;;;;;;;20.99;59.95;96383.41;10348828;28;20057;-31
2023/06/11 22:23:50;;;;;;;4.97;4.32;;;;;;;20.93;60.81;96388.59;10360272;28;20041;-31
2023/06/11 22:28:51;;;;;;;4.72;4.30;;;;;;;20.89;60.44;96392.03;10332086;28;20113;-32
2023/06/11 22:33:51;;;;;;;4.67;3.87;;;;;;;20.89;60.75;96392.03;10327558;28;20038;-32
2023/06/11 22:38:51;;;;;;;4.10;3.70;;;;;;;20.88;60.77;96385.28;10344547;28;20281;-31
2023/06/11 22:43:52;;;;;;;4.17;3.70;;;;;;;21.05;60.61;96393.50;10339652;28;20034;-32
2023/06/11 22:48:52;;;;;;;4.60;3.80;;;;;;;21.18;60.02;96395.00;10333649;28;20320;-32
2023/06/11 22:53:53;;;;;;;4.18;3.25;;;;;;;21.04;60.16;96402.00;10353317;28;20041;-32
2023/06/11 22:58:53;;;;;;;4.00;3.23;;;;;;;20.94;60.24;96399.59;10336120;28;20034;-32
2023/06/11 23:03:56;;;;;;;3.53;3.17;;;;;;;20.89;60.21;96397.13;10331510;28;20289;-32
2023/06/11 23:08:56;;;;;;;3.42;3.10;;;;;;;20.88;60.30;96402.25;10345383;28;20340;-32
2023/06/11 23:13:57;;;;;;;4.10;3.63;;;;;;;20.84;60.34;96393.78;10331112;28;20529;-31
2023/06/11 23:19:00;;;;;;;4.20;3.80;;;;;;;20.93;60.61;96397.94;10331776;28;20475;-32
2023/06/11 23:24:04;;;;;;;3.72;3.42;;;;;;;21.13;60.44;96398.50;10331664;28;20125;-32
2023/06/11 23:29:04;;;;;;;4.68;3.92;;;;;;;21.13;59.88;96391.69;10364144;28;20509;-31
2023/06/11 23:34:05;;;;;;;3.70;3.00;;;;;;;20.99;59.76;96398.66;10342513;28;20049;-31
2023/06/11 23:39:07;;;;;;;4.47;3.60;;;;;;;20.91;60.19;96387.78;10339419;28;20058;-32
2023/06/11 23:44:08;;;;;;;3.35;2.80;;;;;;;20.88;60.06;96387.81;10334378;28;20077;-32
2023/06/11 23:49:08;;;;;;;2.80;2.60;;;;;;;20.83;60.36;96392.13;10342842;28;20599;-32
2023/06/11 23:54:08;;;;;;;2.60;2.20;;;;;;;20.83;60.15;96392.13;10340328;28;20497;-31
2023/06/11 23:59:09;;;;;;;3.87;3.47;;;;;;;20.99;60.67;96393.56;10345009;28;20034;-31
